Time;durP1;ratioP1;P1;durP2;ratioP2;P2;SDS_P1;SDS_P2;PMS_P1;PMS_P2;Temp;Humidity;BMP_temperature;BMP_pressure;BME280_temperature;BME280_humidity;BME280_pressure;Samples;Min_cycle;Max_cycle;Signal;HPM_P1;HPM_P2
2022/07/26 00:01:03;;;;;;;13.43;4.22;;;;;;;17.60;66.48;99149.59;5073075;28;20046;-56
2022/07/26 00:03:29;;;;;;;14.02;4.05;;;;;;;17.59;66.56;99160.72;5072005;28;20127;-56
2022/07/26 00:05:54;;;;;;;12.27;3.58;;;;;;;17.54;66.59;99152.63;5071744;28;20039;-56
2022/07/26 00:08:20;;;;;;;12.32;3.83;;;;;;;17.50;67.08;99151.59;5072743;28;20391;-56
2022/07/26 00:10:47;;;;;;;12.35;4.45;;;;;;;17.21;69.24;99144.38;5072833;28;20534;-57
2022/07/26 00:13:13;;;;;;;14.13;3.85;;;;;;;17.21;68.47;99142.44;5076499;28;20028;-57
2022/07/26 00:15:38;;;;;;;18.30;4.15;;;;;;;17.37;67.79;99148.53;5071881;28;20077;-56
2022/07/26 00:18:04;;;;;;;11.90;3.42;;;;;;;17.38;67.46;99149.31;5071991;28;20029;-56
2022/07/26 00:20:31;;;;;;;20.77;4.25;;;;;;;17.33;67.56;99147.47;5072674;28;20028;-56
2022/07/26 00:22:56;;;;;;;16.63;3.42;;;;;;;17.30;67.50;99150.78;5072591;28;20024;-57
2022/07/26 00:25:21;;;;;;;9.77;3.35;;;;;;;17.39;67.24;99157.13;5070395;28;20399;-56
2022/07/26 00:27:47;;;;;;;9.73;3.25;;;;;;;17.30;67.29;99153.47;5072733;28;20016;-56
2022/07/26 00:30:13;;;;;;;10.27;3.40;;;;;;;17.37;67.99;99159.34;5072676;28;20025;-56
2022/07/26 00:32:38;;;;;;;14.73;3.28;;;;;;;17.41;67.38;99149.53;5078342;28;20020;-57
2022/07/26 00:35:04;;;;;;;15.65;3.50;;;;;;;17.32;67.41;99156.69;5078001;28;20051;-56
2022/07/26 00:37:29;;;;;;;17.45;3.50;;;;;;;17.25;68.33;99165.16;5072201;28;20577;-57
2022/07/26 00:39:55;;;;;;;12.80;3.83;;;;;;;17.19;67.86;99165.50;5072397;28;20028;-56
2022/07/26 00:42:20;;;;;;;8.90;3.60;;;;;;;17.18;68.68;99166.59;5072307;28;20032;-57
2022/07/26 00:44:46;;;;;;;16.13;3.38;;;;;;;17.14;68.17;99165.56;5070837;28;20039;-57
2022/07/26 00:47:11;;;;;;;12.60;3.65;;;;;;;17.10;68.55;99168.03;5072167;28;20028;-56
2022/07/26 00:49:37;;;;;;;15.75;3.45;;;;;;;17.20;69.13;99175.25;5070441;28;20036;-57
2022/07/26 00:52:05;;;;;;;12.15;3.35;;;;;;;17.06;69.48;99171.59;5071195;28;20024;-57
2022/07/26 00:54:31;;;;;;;11.25;3.65;;;;;;;17.06;68.66;99179.72;5072077;28;20028;-56
2022/07/26 00:56:56;;;;;;;7.63;2.85;;;;;;;16.97;68.74;99180.38;5070881;28;20032;-57
2022/07/26 00:59:22;;;;;;;14.93;3.28;;;;;;;16.92;69.45;99177.69;5072100;28;20273;-56
2022/07/26 01:01:47;;;;;;;15.32;3.60;;;;;;;16.84;69.91;99178.31;5073065;28;20033;-55
2022/07/26 01:04:13;;;;;;;12.23;3.20;;;;;;;16.91;69.34;99177.97;5071148;28;20426;-57
2022/07/26 01:06:38;;;;;;;10.25;3.13;;;;;;;16.77;69.57;99177.78;5070677;28;20020;-61
2022/07/26 01:09:04;;;;;;;11.95;3.78;;;;;;;16.76;69.39;99176.19;5071806;28;20025;-57
2022/07/26 01:11:30;;;;;;;15.00;3.35;;;;;;;16.80;69.67;99171.88;5080473;28;20031;-57
2022/07/26 01:13:55;;;;;;;12.95;3.38;;;;;;;16.85;69.97;99174.53;5071875;28;20028;-57
2022/07/26 01:16:21;;;;;;;11.93;3.63;;;;;;;16.72;71.44;99183.25;5072017;28;20528;-57
2022/07/26 01:18:46;;;;;;;14.05;3.47;;;;;;;16.75;70.06;99182.69;5071345;28;20456;-56
2022/07/26 01:21:12;;;;;;;15.88;3.58;;;;;;;16.66;71.49;99181.69;5072050;28;20025;-55
2022/07/26 01:23:37;;;;;;;12.82;3.30;;;;;;;16.66;72.06;99189.81;5071697;28;20068;-56
2022/07/26 01:26:03;;;;;;;9.43;3.38;;;;;;;16.76;70.83;99187.00;5071730;28;20107;-56
2022/07/26 01:28:28;;;;;;;11.48;3.50;;;;;;;16.48;71.15;99192.09;5071699;28;20051;-56
2022/07/26 01:30:54;;;;;;;16.40;3.65;;;;;;;16.52;71.27;99192.34;5071471;28;20459;-56
2022/07/26 01:33:20;;;;;;;16.25;3.20;;;;;;;16.54;71.27;99195.56;5070291;28;20102;-57
2022/07/26 01:35:45;;;;;;;16.95;3.65;;;;;;;16.41;71.83;99191.63;5071760;28;20075;-56
2022/07/26 01:38:10;;;;;;;14.40;3.63;;;;;;;16.39;71.76;99191.09;5075799;28;20032;-54
2022/07/26 01:40:36;;;;;;;14.85;4.38;;;;;;;16.33;72.42;99190.31;5075730;28;20028;-56
2022/07/26 01:43:01;;;;;;;11.70;4.10;;;;;;;16.34;71.94;99191.94;5075397;28;20028;-57
2022/07/26 01:45:27;;;;;;;20.20;3.72;;;;;;;16.29;72.11;99196.56;5075670;28;20032;-56
2022/07/26 01:47:53;;;;;;;10.85;4.10;;;;;;;16.19;72.64;99197.44;5075499;28;20095;-56
2022/07/26 01:50:18;;;;;;;21.45;4.47;;;;;;;16.07;73.23;99203.19;5073970;28;20448;-56
2022/07/26 01:52:44;;;;;;;13.52;3.80;;;;;;;16.04;73.67;99200.25;5080738;28;20037;-56
2022/07/26 01:55:09;;;;;;;15.75;3.78;;;;;;;16.06;73.70;99196.16;5075391;28;20024;-56
2022/07/26 01:57:35;;;;;;;9.20;3.35;;;;;;;16.14;73.48;99200.16;5075388;28;20025;-56
2022/07/26 02:00:00;;;;;;;15.27;4.40;;;;;;;16.16;73.26;99204.22;5074995;28;20021;-56
2022/07/26 02:02:25;;;;;;;15.45;3.60;;;;;;;16.04;73.96;99203.75;5074926;28;20125;-57
2022/07/26 02:04:57;;;;;;;9.73;3.55;;;;;;;16.09;74.28;99208.31;5074373;28;20036;-56
2022/07/26 02:07:22;;;;;;;13.10;3.72;;;;;;;16.10;73.70;99205.34;5074955;28;20389;-56
2022/07/26 02:09:48;;;;;;;12.13;3.97;;;;;;;15.99;74.31;99202.97;5073875;28;20025;-56
2022/07/26 02:12:13;;;;;;;11.30;3.25;;;;;;;16.05;74.78;99204.53;5075135;28;20027;-55
2022/07/26 02:14:38;;;;;;;10.50;3.83;;;;;;;16.05;74.12;99212.66;5074835;28;20086;-55
2022/07/26 02:17:04;;;;;;;16.27;4.05;;;;;;;16.11;74.50;99214.25;5075061;28;20032;-56
2022/07/26 02:19:30;;;;;;;12.30;3.47;;;;;;;16.12;74.35;99213.97;5074986;28;20099;-56
2022/07/26 02:21:55;;;;;;;17.02;3.88;;;;;;;15.99;74.66;99227.28;5074830;28;20107;-55
2022/07/26 02:24:21;;;;;;;12.88;3.40;;;;;;;15.95;74.64;99224.34;5074584;28;20474;-56
2022/07/26 02:26:46;;;;;;;11.30;4.63;;;;;;;15.55;75.98;99226.09;5075023;28;20029;-55
2022/07/26 02:29:12;;;;;;;15.93;3.85;;;;;;;15.21;77.54;99232.09;5079272;28;20033;-56
2022/07/26 02:31:37;;;;;;;14.00;3.58;;;;;;;15.02;78.22;99233.75;5074864;28;20032;-56
2022/07/26 02:34:02;;;;;;;18.92;4.65;;;;;;;15.00;78.63;99239.44;5074173;28;20025;-56
2022/07/26 02:36:28;;;;;;;15.80;4.05;;;;;;;14.93;79.27;99243.50;5073406;28;20107;-56
2022/07/26 02:38:53;;;;;;;13.18;3.65;;;;;;;14.97;79.14;99245.34;5074903;28;20486;-55
2022/07/26 02:41:19;;;;;;;19.90;4.95;;;;;;;15.04;78.55;99245.09;5075025;28;20097;-56
2022/07/26 02:43:44;;;;;;;11.05;4.00;;;;;;;15.16;78.20;99248.31;5076709;28;20388;-55
2022/07/26 02:46:10;;;;;;;16.55;4.05;;;;;;;15.34;77.49;99238.03;5074457;28;20047;-56
2022/07/26 02:48:35;;;;;;;14.07;3.67;;;;;;;15.26;78.01;99244.78;5071931;28;20059;-56
2022/07/26 02:51:01;;;;;;;17.83;4.13;;;;;;;15.35;77.59;99243.16;5074337;28;20020;-56
2022/07/26 02:53:26;;;;;;;14.23;3.45;;;;;;;15.37;77.60;99245.56;5074477;28;20039;-56
2022/07/26 02:55:52;;;;;;;9.43;3.67;;;;;;;15.36;77.93;99246.66;5074463;28;20482;-55
2022/07/26 02:58:20;;;;;;;22.20;3.90;;;;;;;15.38;77.86;99244.50;5074046;28;20032;-56
2022/07/26 03:00:45;;;;;;;11.45;3.58;;;;;;;15.58;77.05;99244.47;5073596;28;20031;-56
2022/07/26 03:03:12;;;;;;;10.15;3.13;;;;;;;15.66;76.36;99251.97;5072248;28;20123;-55
2022/07/26 03:05:38;;;;;;;13.00;3.80;;;;;;;15.68;76.26;99252.53;5074105;28;20387;-56
2022/07/26 03:08:04;;;;;;;8.35;3.33;;;;;;;15.68;76.63;99255.22;5074091;28;20107;-56
2022/07/26 03:10:29;;;;;;;14.23;3.88;;;;;;;15.67;76.46;99248.19;5078295;28;20036;-56
2022/07/26 03:12:55;;;;;;;11.82;3.30;;;;;;;15.77;75.98;99251.97;5073730;28;20115;-55
2022/07/26 03:15:20;;;;;;;12.52;3.60;;;;;;;15.78;76.37;99250.91;5073969;28;20079;-56
2022/07/26 03:17:45;;;;;;;10.82;3.40;;;;;;;15.90;75.75;99251.38;5073480;28;20087;-56
2022/07/26 03:20:11;;;;;;;13.70;3.45;;;;;;;15.94;76.50;99257.84;5073270;28;20485;-57
2022/07/26 03:22:37;;;;;;;14.57;3.92;;;;;;;15.91;75.24;99258.41;5075618;28;20025;-56
2022/07/26 03:25:02;;;;;;;8.10;3.25;;;;;;;15.96;75.64;99266.50;5073742;28;20028;-56
2022/07/26 03:27:28;;;;;;;9.88;3.15;;;;;;;16.13;74.84;99266.97;5074026;28;20024;-56
2022/07/26 03:29:53;;;;;;;11.80;3.08;;;;;;;16.23;75.01;99260.69;5072239;28;20021;-59
2022/07/26 03:32:19;;;;;;;14.07;3.17;;;;;;;16.13;75.03;99261.56;5078859;28;20370;-57
2022/07/26 03:34:44;;;;;;;12.90;2.90;;;;;;;16.08;74.82;99261.59;5073119;28;20023;-57
2022/07/26 03:37:09;;;;;;;9.00;3.10;;;;;;;16.14;74.40;99267.75;5072674;28;20024;-58
2022/07/26 03:39:36;;;;;;;9.55;2.90;;;;;;;16.30;75.01;99263.06;5073421;28;20024;-55
2022/07/26 03:42:02;;;;;;;7.22;2.83;;;;;;;16.25;74.51;99257.69;5073343;28;20077;-56
2022/07/26 03:44:28;;;;;;;9.48;3.30;;;;;;;16.23;73.99;99263.41;5073372;28;20032;-57
2022/07/26 03:46:53;;;;;;;10.48;2.70;;;;;;;16.03;75.02;99264.31;5073412;28;20386;-56
2022/07/26 03:49:19;;;;;;;9.52;3.33;;;;;;;16.11;74.50;99269.13;5072722;28;20028;-56
2022/07/26 03:51:44;;;;;;;5.22;2.80;;;;;;;16.10;74.65;99266.69;5072341;28;20410;-57
2022/07/26 03:54:10;;;;;;;9.32;2.90;;;;;;;15.98;74.93;99266.25;5073474;28;20924;-56
2022/07/26 03:56:35;;;;;;;7.70;2.97;;;;;;;16.05;75.14;99270.25;5071947;28;20029;-56
2022/07/26 03:59:05;;;;;;;8.73;2.72;;;;;;;16.03;75.18;99272.41;5072786;28;20082;-55
2022/07/26 04:01:31;;;;;;;;;;;;;;;16.14;75.01;99267.75;5073449;28;20035;-56
2022/07/26 04:03:57;;;;;;;7.40;2.80;;;;;;;16.04;74.57;99268.63;5072358;28;19920;-56
2022/07/26 04:06:22;;;;;;;10.05;2.85;;;;;;;15.93;75.36;99277.88;5073396;28;20082;-56
2022/07/26 04:08:47;;;;;;;14.98;3.03;;;;;;;15.95;75.11;99279.22;5071704;28;20024;-56
2022/07/26 04:11:13;;;;;;;4.88;2.70;;;;;;;15.88;75.75;99265.19;5071492;28;20025;-56
2022/07/26 04:13:39;;;;;;;8.45;2.88;;;;;;;15.88;75.56;99272.50;5073002;28;20031;-56
2022/07/26 04:16:04;;;;;;;8.48;2.80;;;;;;;15.86;76.07;99269.25;5079186;28;20025;-55
2022/07/26 04:18:30;;;;;;;9.32;3.00;;;;;;;15.76;76.31;99272.00;5072195;28;20064;-56
2022/07/26 04:20:55;;;;;;;6.25;3.17;;;;;;;15.68;77.02;99262.53;5077671;28;20360;-55
2022/07/26 04:23:21;;;;;;;6.55;2.67;;;;;;;15.60;76.87;99274.72;5074053;28;20023;-56
2022/07/26 04:25:46;;;;;;;14.15;3.13;;;;;;;15.64;76.75;99274.97;5072287;28;20021;-56
2022/07/26 04:28:12;;;;;;;9.00;2.90;;;;;;;15.55;77.13;99272.03;5072487;28;20048;-56
2022/07/26 04:30:37;;;;;;;8.52;3.20;;;;;;;15.69;77.54;99277.66;5072444;28;20058;-55
2022/07/26 04:33:03;;;;;;;7.28;3.05;;;;;;;15.84;76.32;99284.94;5072095;28;20509;-56
2022/07/26 04:35:28;;;;;;;15.77;3.17;;;;;;;15.82;76.65;99270.88;5074850;28;20400;-54
2022/07/26 04:37:54;;;;;;;8.23;2.90;;;;;;;15.94;76.16;99279.47;5080617;28;20091;-57
2022/07/26 04:40:20;;;;;;;12.85;3.00;;;;;;;16.01;75.62;99268.38;5072679;28;20364;-57
2022/07/26 04:42:45;;;;;;;6.25;2.85;;;;;;;16.40;74.64;99276.56;5072123;28;20020;-57
2022/07/26 04:45:14;;;;;;;8.52;2.63;;;;;;;19.20;64.92;99283.78;5072297;28;20170;-57
2022/07/26 04:47:43;;;;;;;4.55;2.70;;;;;;;19.41;63.35;99276.84;5071657;28;20028;-57
2022/07/26 04:50:09;;;;;;;7.95;2.60;;;;;;;19.60;62.50;99279.50;5072639;28;20059;-55
2022/07/26 04:52:35;;;;;;;18.23;3.83;;;;;;;19.88;61.34;99282.25;5072435;28;20107;-55
2022/07/26 04:55:00;;;;;;;9.63;2.63;;;;;;;21.06;58.15;99278.53;5072107;28;20127;-55
2022/07/26 04:57:26;;;;;;;5.45;2.10;;;;;;;21.35;56.07;99281.94;5072265;28;20038;-56
2022/07/26 04:59:51;;;;;;;4.50;1.98;;;;;;;20.60;58.35;99276.13;5077067;28;20024;-56
2022/07/26 05:02:17;;;;;;;6.28;2.10;;;;;;;21.14;56.55;99285.16;5071898;28;20044;-57
2022/07/26 05:04:43;;;;;;;6.75;2.20;;;;;;;21.83;55.21;99284.72;5071596;28;20024;-57
2022/07/26 05:07:08;;;;;;;7.97;2.40;;;;;;;22.43;53.05;99285.22;5072284;28;20202;-56
2022/07/26 05:09:34;;;;;;;7.25;2.22;;;;;;;22.57;52.66;99281.22;5072079;28;20035;-57
2022/07/26 05:11:59;;;;;;;6.97;2.25;;;;;;;22.89;51.18;99281.84;5072972;28;20024;-57
2022/07/26 05:14:25;;;;;;;7.88;2.60;;;;;;;21.87;54.10;99282.19;5071892;28;20021;-56
2022/07/26 05:16:50;;;;;;;11.23;3.10;;;;;;;21.90;53.48;99278.81;5085048;28;20073;-55
2022/07/26 05:19:15;;;;;;;6.07;3.08;;;;;;;22.74;53.09;99285.06;5071715;28;20051;-56
2022/07/26 05:21:41;;;;;;;7.57;2.45;;;;;;;23.94;49.58;99287.06;5072054;28;20462;-56
2022/07/26 05:24:07;;;;;;;10.77;2.72;;;;;;;23.59;49.36;99287.19;5075978;28;20029;-56
2022/07/26 05:26:32;;;;;;;9.65;2.60;;;;;;;22.75;51.30;99281.22;5071774;28;20036;-57
2022/07/26 05:28:58;;;;;;;9.13;2.60;;;;;;;19.61;60.96;99283.81;5071885;28;20367;-57
2022/07/26 05:31:23;;;;;;;9.20;2.67;;;;;;;19.89;61.74;99284.66;5071138;28;20016;-55
2022/07/26 05:33:49;;;;;;;11.23;2.70;;;;;;;20.87;57.83;99284.19;5071294;28;20056;-56
2022/07/26 05:36:14;;;;;;;6.75;2.50;;;;;;;19.01;63.81;99279.16;5071744;28;20028;-56
2022/07/26 05:38:40;;;;;;;11.70;2.67;;;;;;;18.72;65.61;99274.72;5070437;28;20091;-57
2022/07/26 05:41:05;;;;;;;7.90;2.65;;;;;;;18.08;67.14;99276.97;5071777;28;20033;-56
2022/07/26 05:43:31;;;;;;;9.82;3.00;;;;;;;17.80;68.82;99277.88;5071700;28;20473;-56
2022/07/26 05:45:56;;;;;;;8.55;2.75;;;;;;;17.44;70.25;99283.63;5071700;28;20032;-57
2022/07/26 05:48:22;;;;;;;8.68;3.25;;;;;;;17.61;70.30;99289.41;5070085;28;20056;-57
2022/07/26 05:50:48;;;;;;;11.90;3.17;;;;;;;17.64;70.00;99282.59;5071522;28;20470;-57
2022/07/26 05:53:13;;;;;;;11.43;3.50;;;;;;;17.51;70.12;99284.09;5070816;28;20070;-58
2022/07/26 05:55:38;;;;;;;11.90;3.70;;;;;;;17.83;69.95;99275.38;5071164;28;20413;-56
2022/07/26 05:58:04;;;;;;;16.50;3.97;;;;;;;18.15;68.77;99284.75;5071667;28;20032;-56
2022/07/26 06:00:29;;;;;;;16.23;3.58;;;;;;;18.48;67.21;99285.66;5072195;28;20060;-55
2022/07/26 06:02:55;;;;;;;13.32;3.38;;;;;;;18.02;69.00;99282.72;5074890;28;20108;-54
2022/07/26 06:05:20;;;;;;;8.38;3.60;;;;;;;17.57;71.09;99282.13;5071389;28;20086;-56
2022/07/26 06:07:46;;;;;;;8.60;3.50;;;;;;;17.65;71.45;99284.22;5071824;28;20055;-56
2022/07/26 06:10:11;;;;;;;10.10;3.72;;;;;;;19.25;65.67;99280.97;5071080;28;20082;-56
2022/07/26 06:12:37;;;;;;;13.82;3.45;;;;;;;19.74;64.04;99290.41;5070118;28;20036;-55
2022/07/26 06:15:03;;;;;;;13.40;3.30;;;;;;;18.11;68.53;99281.78;5071100;28;20494;-55
2022/07/26 06:17:28;;;;;;;12.05;3.08;;;;;;;18.09;69.40;99288.59;5070168;28;20033;-55
2022/07/26 06:19:55;;;;;;;12.63;3.63;;;;;;;18.28;68.92;99297.59;5070969;28;20028;-56
2022/07/26 06:22:20;;;;;;;8.45;3.30;;;;;;;17.43;71.14;99298.28;5076079;28;20044;-56
2022/07/26 06:24:46;;;;;;;11.65;4.20;;;;;;;17.66;71.17;99291.25;5072975;28;20032;-55
2022/07/26 06:27:11;;;;;;;17.65;3.92;;;;;;;20.07;62.84;99299.28;5074980;28;20173;-56
2022/07/26 06:29:37;;;;;;;15.75;3.80;;;;;;;20.71;60.51;99299.28;5074616;28;20036;-56
2022/07/26 06:32:02;;;;;;;9.43;3.35;;;;;;;19.73;63.34;99302.41;5075140;28;20028;-56
2022/07/26 06:34:28;;;;;;;13.68;3.35;;;;;;;18.47;67.23;99305.75;5072902;28;20025;-55
2022/07/26 06:36:53;;;;;;;18.20;3.88;;;;;;;18.08;69.02;99292.44;5080456;28;20031;-55
2022/07/26 06:39:19;;;;;;;15.85;3.55;;;;;;;20.27;62.06;99300.78;5073721;28;20367;-55
2022/07/26 06:41:44;;;;;;;12.80;3.40;;;;;;;20.18;63.08;99297.16;5074730;28;20075;-56
2022/07/26 06:44:09;;;;;;;10.38;3.28;;;;;;;20.40;61.56;99307.31;5074565;28;20051;-56
2022/07/26 06:46:35;;;;;;;13.05;3.50;;;;;;;20.37;61.30;99308.72;5074602;28;20772;-57
2022/07/26 06:49:00;;;;;;;8.75;3.40;;;;;;;19.76;63.35;99302.59;5074003;28;20033;-56
2022/07/26 06:51:26;;;;;;;10.43;3.53;;;;;;;20.03;63.15;99307.22;5076542;28;20054;-56
2022/07/26 06:53:51;;;;;;;9.05;3.40;;;;;;;19.97;63.30;99308.47;5074227;28;20024;-57
2022/07/26 06:56:17;;;;;;;11.75;3.67;;;;;;;20.30;62.56;99308.31;5074481;28;20043;-56
2022/07/26 06:58:43;;;;;;;10.73;3.63;;;;;;;20.26;62.80;99313.56;5074188;28;20044;-57
2022/07/26 07:01:08;;;;;;;12.35;3.50;;;;;;;20.65;61.11;99312.19;5074155;28;20025;-57
2022/07/26 07:03:34;;;;;;;12.45;3.40;;;;;;;22.94;55.30;99324.59;5073672;28;20033;-57
2022/07/26 07:05:59;;;;;;;9.82;3.42;;;;;;;23.45;52.47;99325.69;5072922;28;20033;-56
2022/07/26 07:08:25;;;;;;;11.63;3.58;;;;;;;26.76;44.74;99323.56;5074241;28;20028;-56
2022/07/26 07:10:51;;;;;;;8.18;3.30;;;;;;;29.01;40.25;99320.06;5074084;28;20017;-56
2022/07/26 07:13:17;;;;;;;10.27;3.10;;;;;;;29.43;38.62;99324.84;5073660;28;20044;-56
2022/07/26 07:15:43;;;;;;;11.52;3.45;;;;;;;25.87;45.22;99316.06;5079495;28;20029;-56
2022/07/26 07:18:09;;;;;;;10.13;2.80;;;;;;;24.61;48.52;99323.72;5073755;28;20471;-56
2022/07/26 07:20:34;;;;;;;8.82;2.95;;;;;;;25.30;46.99;99320.41;5079047;28;20024;-56
2022/07/26 07:23:00;;;;;;;9.93;3.08;;;;;;;24.10;49.39;99323.69;5073912;28;20580;-56
2022/07/26 07:25:25;;;;;;;13.45;3.80;;;;;;;23.46;51.53;99322.63;5073780;28;20070;-56
2022/07/26 07:27:51;;;;;;;11.15;3.55;;;;;;;22.68;53.94;99321.88;5073681;28;20020;-56
2022/07/26 07:30:16;;;;;;;19.13;3.65;;;;;;;22.91;53.60;99317.84;5073729;28;20032;-56
2022/07/26 07:32:42;;;;;;;12.65;3.50;;;;;;;22.62;53.52;99321.22;5073073;28;20032;-56
2022/07/26 07:35:08;;;;;;;11.75;3.78;;;;;;;21.11;57.62;99313.03;5072264;28;20090;-55
2022/07/26 07:37:34;;;;;;;9.52;3.22;;;;;;;25.20;48.97;99318.09;5073686;28;20017;-56
2022/07/26 07:39:59;;;;;;;14.40;3.20;;;;;;;26.13;45.60;99310.22;5073387;28;20426;-56
2022/07/26 07:42:25;;;;;;;10.60;3.63;;;;;;;27.11;42.19;99317.47;5082980;28;20027;-56
2022/07/26 07:44:50;;;;;;;11.10;3.47;;;;;;;27.36;42.39;99318.19;5073153;28;20078;-56
2022/07/26 07:47:16;;;;;;;9.63;3.33;;;;;;;27.75;41.33;99315.63;5073144;28;20111;-56
2022/07/26 07:49:41;;;;;;;10.02;3.28;;;;;;;28.31;40.07;99312.66;5077879;28;20023;-56
2022/07/26 07:52:07;;;;;;;10.93;3.42;;;;;;;22.57;52.85;99308.53;5073424;28;20468;-56
2022/07/26 07:54:32;;;;;;;13.45;3.45;;;;;;;23.99;49.41;99306.84;5073198;28;20025;-56
2022/07/26 07:56:58;;;;;;;10.15;3.25;;;;;;;27.93;42.06;99305.06;5073346;28;20433;-57
2022/07/26 07:59:23;;;;;;;7.85;2.97;;;;;;;26.36;44.31;99305.06;5073528;28;20455;-56
2022/07/26 08:01:48;;;;;;;10.63;3.15;;;;;;;29.26;39.46;99306.00;5073297;28;20023;-57
2022/07/26 08:04:14;;;;;;;9.07;3.17;;;;;;;26.43;43.14;99305.28;5072085;28;20044;-55
2022/07/26 08:06:40;;;;;;;10.48;3.28;;;;;;;25.56;44.81;99309.16;5073049;28;20028;-56
2022/07/26 08:09:05;;;;;;;11.77;3.10;;;;;;;24.17;48.21;99304.81;5072973;28;20025;-56
2022/07/26 08:11:31;;;;;;;10.98;3.33;;;;;;;23.46;50.02;99308.13;5076419;28;20031;-56
2022/07/26 08:13:56;;;;;;;12.07;3.90;;;;;;;22.91;52.25;99306.91;5072490;28;20027;-56
2022/07/26 08:16:22;;;;;;;9.88;3.60;;;;;;;22.39;52.48;99296.00;5073173;28;20382;-57
2022/07/26 08:18:47;;;;;;;11.65;3.58;;;;;;;23.39;51.78;99311.38;5071286;28;20454;-56
2022/07/26 08:21:12;;;;;;;13.65;3.80;;;;;;;23.60;50.20;99314.22;5071339;28;20039;-56
2022/07/26 08:23:38;;;;;;;13.23;3.75;;;;;;;23.34;50.68;99313.47;5078947;28;20028;-57
2022/07/26 08:26:03;;;;;;;6.70;3.30;;;;;;;23.27;50.80;99319.47;5072612;28;20024;-56
2022/07/26 08:28:29;;;;;;;11.27;3.75;;;;;;;23.16;50.63;99312.69;5072575;28;20032;-56
2022/07/26 08:30:54;;;;;;;11.05;4.00;;;;;;;24.27;48.36;99315.38;5075018;28;20028;-55
2022/07/26 08:33:20;;;;;;;14.35;3.58;;;;;;;25.28;45.66;99317.19;5072123;28;20033;-56
2022/07/26 08:35:45;;;;;;;14.02;5.18;;;;;;;26.50;43.50;99314.88;5072481;28;20051;-56
2022/07/26 08:38:11;;;;;;;13.68;3.60;;;;;;;25.89;43.88;99324.78;5071255;28;20052;-56
2022/07/26 08:40:36;;;;;;;11.00;3.50;;;;;;;25.92;44.99;99318.59;5072096;28;20095;-56
2022/07/26 08:43:02;;;;;;;13.00;4.25;;;;;;;26.95;42.32;99328.41;5054853;28;20349;-57
2022/07/26 08:45:29;;;;;;;8.68;3.45;;;;;;;26.86;42.06;99327.78;5071977;28;20025;-57
2022/07/26 08:47:54;;;;;;;10.80;3.70;;;;;;;25.64;44.45;99336.84;5072143;28;20020;-57
2022/07/26 08:50:20;;;;;;;8.48;3.70;;;;;;;24.80;46.10;99343.25;5072174;28;20375;-56
2022/07/26 08:52:46;;;;;;;8.63;3.45;;;;;;;24.19;47.86;99327.19;5072337;28;20054;-56
2022/07/26 08:55:14;;;;;;;11.63;4.00;;;;;;;24.08;47.92;99339.63;5081947;28;20028;-57
2022/07/26 08:57:40;;;;;;;16.45;4.07;;;;;;;23.14;50.26;99337.66;5072095;28;20032;-56
2022/07/26 09:00:28;;;;;;;10.73;3.90;;;;;;;23.27;49.83;99333.13;5072417;28;20078;-56
2022/07/26 09:02:53;;;;;;;12.15;4.45;;;;;;;22.87;50.83;99333.28;5071500;28;20522;-55
2022/07/26 09:05:32;;;;;;;16.50;4.00;;;;;;;23.01;50.75;99331.22;5071779;28;20055;-55
2022/07/26 09:07:57;;;;;;;9.85;4.18;;;;;;;22.79;51.20;99334.09;5071865;28;20444;-56
2022/07/26 09:10:23;;;;;;;14.57;4.20;;;;;;;22.67;52.10;99333.94;5071965;28;20028;-56
2022/07/26 09:12:55;;;;;;;8.88;3.85;;;;;;;22.51;52.29;99339.03;5070901;28;20039;-56
2022/07/26 09:15:23;;;;;;;11.85;4.40;;;;;;;22.43;52.33;99345.28;5071829;28;20032;-55
2022/07/26 09:17:50;;;;;;;8.30;3.80;;;;;;;22.49;53.01;99350.28;5071559;28;20025;-55
2022/07/26 09:20:26;;;;;;;9.55;3.83;;;;;;;22.40;53.59;99352.19;5076295;28;20527;-56
2022/07/26 09:22:58;;;;;;;8.20;4.25;;;;;;;22.39;53.66;99354.13;5072024;28;20032;-56
2022/07/26 09:25:23;;;;;;;14.13;4.68;;;;;;;22.76;52.79;99357.38;5078916;28;20139;-56
2022/07/26 09:27:49;;;;;;;10.98;4.30;;;;;;;22.80;52.75;99354.81;5071716;28;20021;-56
2022/07/26 09:30:15;;;;;;;17.02;4.32;;;;;;;22.79;52.12;99354.03;5071436;28;20059;-54
2022/07/26 09:32:41;;;;;;;10.80;4.47;;;;;;;24.65;48.40;99363.03;5071095;28;20020;-55
2022/07/26 09:35:16;;;;;;;13.73;4.47;;;;;;;26.07;44.27;99352.00;5053587;28;20042;-56
2022/07/26 09:37:45;;;;;;;15.98;4.97;;;;;;;25.69;45.59;99364.06;5072087;28;20494;-56
2022/07/26 09:40:15;;;;;;;13.80;4.60;;;;;;;24.55;46.87;99350.53;5071887;28;20035;-56
2022/07/26 09:42:53;;;;;;;8.75;4.20;;;;;;;24.70;47.43;99358.16;5070297;28;20119;-55
2022/07/26 09:45:19;;;;;;;17.85;4.45;;;;;;;24.79;47.18;99357.28;5071563;28;20074;-55
2022/07/26 09:47:44;;;;;;;11.05;4.40;;;;;;;26.06;44.17;99362.22;5071091;28;20032;-56
2022/07/26 09:50:27;;;;;;;9.05;4.45;;;;;;;25.68;44.31;99356.97;5075138;28;20044;-56
2022/07/26 09:52:56;;;;;;;11.35;4.57;;;;;;;26.02;44.17;99356.56;5064500;28;20040;-55
2022/07/26 09:55:22;;;;;;;8.77;4.03;;;;;;;27.01;41.71;99359.19;5072052;28;20471;-57
2022/07/26 09:57:50;;;;;;;11.35;4.18;;;;;;;28.03;39.67;99365.16;5073536;28;20024;-56
2022/07/26 10:00:16;;;;;;;6.72;3.95;;;;;;;27.78;39.83;99367.22;5075417;28;20044;-55
2022/07/26 10:02:42;;;;;;;10.52;3.95;;;;;;;27.08;41.24;99365.72;5073250;28;20032;-56
2022/07/26 10:05:10;;;;;;;9.63;5.03;;;;;;;27.46;40.56;99363.66;5081462;28;20043;-56
2022/07/26 10:07:36;;;;;;;16.77;4.72;;;;;;;26.26;43.08;99371.47;5074983;28;20031;-57
2022/07/26 10:10:17;;;;;;;9.65;4.65;;;;;;;25.07;45.89;99377.53;5078008;28;20024;-56
2022/07/26 10:12:45;;;;;;;11.07;4.43;;;;;;;23.99;48.19;99377.19;5077362;28;20439;-58
2022/07/26 10:15:40;;;;;;;15.75;4.78;;;;;;;23.79;48.97;99376.81;5075403;28;20064;-56
2022/07/26 10:18:07;;;;;;;10.70;5.30;;;;;;;23.32;50.17;99375.91;5074582;28;20024;-55
2022/07/26 10:20:40;;;;;;;10.52;4.97;;;;;;;23.69;49.43;99382.59;5075054;28;20016;-54
2022/07/26 10:23:34;;;;;;;7.95;5.30;;;;;;;24.55;47.36;99366.97;5073818;28;20059;-55
2022/07/26 10:26:00;;;;;;;13.55;4.25;;;;;;;27.31;42.02;99363.25;5075180;28;20036;-56
2022/07/26 10:28:27;;;;;;;10.43;4.50;;;;;;;27.39;40.85;99360.69;5073587;28;20526;-55
2022/07/26 10:31:19;;;;;;;12.77;4.53;;;;;;;26.49;42.37;99365.50;5074777;28;20020;-55
2022/07/26 10:33:46;;;;;;;9.07;3.92;;;;;;;25.43;44.72;99378.06;5074288;28;20123;-55
2022/07/26 10:36:22;;;;;;;11.60;4.32;;;;;;;25.01;45.62;99378.91;5057037;28;20091;-55
2022/07/26 10:39:04;;;;;;;12.98;5.55;;;;;;;24.39;46.94;99379.56;5081623;28;20070;-54
2022/07/26 10:41:35;;;;;;;9.25;4.22;;;;;;;24.45;46.19;99372.78;5074873;28;20048;-56
2022/07/26 10:44:14;;;;;;;12.55;4.80;;;;;;;24.07;47.63;99373.63;5073521;28;20059;-55
2022/07/26 10:47:07;;;;;;;7.75;4.45;;;;;;;23.70;48.26;99370.50;5074547;28;20028;-55
2022/07/26 10:49:40;;;;;;;12.82;4.45;;;;;;;23.75;47.50;99375.84;5074259;28;20111;-54
2022/07/26 10:52:05;;;;;;;9.50;4.63;;;;;;;23.77;47.70;99375.53;5088955;28;20036;-55
2022/07/26 10:54:30;;;;;;;9.77;4.40;;;;;;;24.95;45.35;99370.03;5074914;28;20348;-56
2022/07/26 10:56:56;;;;;;;9.73;4.70;;;;;;;24.37;45.91;99370.91;5074277;28;21038;-56
2022/07/26 10:59:31;;;;;;;12.75;4.85;;;;;;;24.32;46.38;99372.69;5074345;28;20035;-57
2022/07/26 11:01:56;;;;;;;14.20;4.68;;;;;;;24.26;46.48;99376.78;5079716;28;20063;-57
2022/07/26 11:04:22;;;;;;;17.52;4.80;;;;;;;24.10;48.29;99378.44;5072381;28;20036;-55
2022/07/26 11:06:47;;;;;;;22.75;5.43;;;;;;;23.38;49.75;99375.41;5074357;28;20107;-61
2022/07/26 11:09:13;;;;;;;21.75;5.63;;;;;;;22.83;51.56;99370.56;5073823;28;20028;-56
2022/07/26 11:11:38;;;;;;;20.08;5.05;;;;;;;23.99;48.99;99371.72;5073638;28;20371;-57
2022/07/26 11:14:08;;;;;;;31.17;5.35;;;;;;;23.98;49.26;99373.66;5074281;28;20494;-57
2022/07/26 11:16:38;;;;;;;16.77;4.88;;;;;;;24.21;49.72;99376.13;5070855;28;20153;-54
2022/07/26 11:19:20;;;;;;;24.77;6.13;;;;;;;23.33;51.47;99361.91;5073357;28;20378;-57
2022/07/26 11:21:57;;;;;;;29.70;5.85;;;;;;;23.51;51.19;99361.88;5073027;28;20489;-57
2022/07/26 11:24:25;;;;;;;18.58;5.38;;;;;;;22.53;53.99;99364.91;5078725;28;20029;-56
2022/07/26 11:26:51;;;;;;;24.70;5.53;;;;;;;22.82;52.80;99358.03;5072841;28;20032;-55